Time;durP1;ratioP1;P1;durP2;ratioP2;P2;SDS_P1;SDS_P2;PMS_P1;PMS_P2;Temp;Humidity;BMP_temperature;BMP_pressure;BME280_temperature;BME280_humidity;BME280_pressure;Samples;Min_cycle;Max_cycle;Signal;HPM_P1;HPM_P2
2023/05/09 00:00:38;;;;;;;12.80;10.10;;;;;;;5.25;69.39;102009.73;105608;1258;95704;-77
2023/05/09 00:03:24;;;;;;;16.70;10.30;;;;;;;5.21;69.73;102007.92;105594;1256;96756;-78
2023/05/09 00:06:12;;;;;;;14.10;11.20;;;;;;;5.18;70.11;102004.58;105573;1255;99920;-77
2023/05/09 00:08:58;;;;;;;16.50;10.00;;;;;;;5.15;70.46;102002.36;105558;1257;99088;-78
2023/05/09 00:11:43;;;;;;;14.80;11.00;;;;;;;5.11;70.42;101996.84;105645;1257;99142;-78
2023/05/09 00:14:28;;;;;;;13.60;10.10;;;;;;;5.06;70.03;101995.81;105523;1256;96698;-77
2023/05/09 00:17:15;;;;;;;14.60;10.20;;;;;;;5.01;70.09;101994.11;105530;1260;96783;-77
2023/05/09 00:20:06;;;;;;;14.30;10.10;;;;;;;4.97;69.97;101996.33;105503;1261;101241;-78
2023/05/09 00:22:52;;;;;;;;;;;;;;;4.94;70.30;101994.64;105519;1258;99690;-77
2023/05/09 00:25:37;;;;;;;16.70;9.70;;;;;;;4.86;70.28;101996.14;105626;1260;98962;-77
2023/05/09 00:28:23;;;;;;;12.90;9.30;;;;;;;4.81;70.19;101995.44;105461;1260;97587;-77
2023/05/09 00:31:08;;;;;;;12.90;10.20;;;;;;;4.78;70.25;101995.86;105558;1261;96680;-78
2023/05/09 00:33:53;;;;;;;13.60;9.50;;;;;;;4.76;70.15;101996.41;105493;1257;100734;-76
2023/05/09 00:36:39;;;;;;;14.40;9.80;;;;;;;4.72;70.39;101994.92;105578;1260;99070;-76
2023/05/09 00:39:25;;;;;;;12.30;9.60;;;;;;;4.68;70.84;101993.80;105489;1256;99879;-76
2023/05/09 00:42:10;;;;;;;11.70;9.40;;;;;;;4.66;71.09;101991.98;105511;1260;96531;-77
2023/05/09 00:44:56;;;;;;;13.90;8.90;;;;;;;4.61;71.24;101989.67;105586;1256;97079;-78
2023/05/09 00:47:42;;;;;;;13.20;9.90;;;;;;;4.60;71.48;101990.32;105501;1256;99968;-76
2023/05/09 00:50:27;;;;;;;15.50;10.40;;;;;;;4.59;71.52;101991.48;105608;1256;101388;-78
2023/05/09 00:53:13;;;;;;;11.20;9.00;;;;;;;4.55;71.63;101993.33;105604;1256;97862;-77
2023/05/09 00:55:59;;;;;;;15.10;8.80;;;;;;;4.50;71.55;101994.25;105596;1260;96568;-78
2023/05/09 00:58:44;;;;;;;12.50;9.40;;;;;;;4.45;71.28;101993.71;105469;1257;97596;-78
2023/05/09 01:01:30;;;;;;;12.40;9.10;;;;;;;4.46;71.29;101992.29;105531;1255;101350;-78
2023/05/09 01:04:15;;;;;;;12.30;9.20;;;;;;;4.47;71.45;101989.54;105140;1256;100475;-76
2023/05/09 01:07:29;;;;;;;13.00;9.70;;;;;;;4.48;71.56;101989.64;105242;1256;97712;-78
2023/05/09 01:10:25;;;;;;;10.90;8.20;;;;;;;4.47;71.47;101991.62;105265;1260;96602;-78
2023/05/09 01:13:43;;;;;;;10.90;7.90;;;;;;;4.40;71.11;101990.06;105641;1259;97035;-76
2023/05/09 01:16:52;;;;;;;11.40;8.60;;;;;;;4.31;71.28;101992.49;105483;1256;99990;-76
2023/05/09 01:20:09;;;;;;;10.00;8.00;;;;;;;4.26;71.12;101994.64;105531;1255;100075;-77
2023/05/09 01:23:10;;;;;;;10.40;7.90;;;;;;;4.23;71.47;101990.63;105517;1256;98484;-77
2023/05/09 01:26:04;;;;;;;13.90;8.20;;;;;;;4.21;71.37;101988.88;105494;1260;96620;-76
2023/05/09 01:29:08;;;;;;;11.20;8.00;;;;;;;4.19;71.59;101989.83;105597;1260;95900;-79
2023/05/09 01:31:56;;;;;;;10.00;8.10;;;;;;;4.15;71.76;101989.67;105478;1256;101301;-79
2023/05/09 01:34:46;;;;;;;11.00;8.90;;;;;;;4.10;71.41;101987.02;105625;1260;100373;-79
2023/05/09 01:37:34;;;;;;;15.30;8.80;;;;;;;4.05;71.42;101986.64;105564;1260;97746;-77
2023/05/09 01:40:24;;;;;;;10.00;7.80;;;;;;;4.03;71.68;101985.37;105397;1257;97497;-78
2023/05/09 01:43:14;;;;;;;13.30;9.10;;;;;;;4.02;71.88;101985.15;105594;1256;95913;-77
2023/05/09 01:46:01;;;;;;;13.50;8.50;;;;;;;3.99;71.75;101983.39;105433;1256;100674;-77
2023/05/09 01:48:49;;;;;;;12.10;8.10;;;;;;;3.93;71.69;101981.16;105571;1260;100353;-76
2023/05/09 01:51:37;;;;;;;11.40;8.80;;;;;;;3.87;70.99;101982.33;105540;1256;97761;-77
2023/05/09 01:54:26;;;;;;;10.30;7.80;;;;;;;3.81;71.36;101981.68;105474;1256;96803;-77
2023/05/09 01:57:13;;;;;;;10.40;7.60;;;;;;;3.77;71.46;101982.86;105516;1259;96579;-77
2023/05/09 02:00:01;;;;;;;13.30;8.10;;;;;;;3.72;71.50;101980.54;105576;1255;99960;-78
2023/05/09 02:02:48;;;;;;;13.20;8.80;;;;;;;3.71;71.90;101979.27;105570;1260;99111;-77
2023/05/09 02:05:36;;;;;;;10.40;8.10;;;;;;;3.69;72.27;101976.52;105498;1255;98981;-76
2023/05/09 02:08:22;;;;;;;9.10;8.10;;;;;;;3.68;72.22;101974.48;105537;1256;96608;-77
2023/05/09 02:11:07;;;;;;;14.10;9.20;;;;;;;3.66;72.58;101975.70;105507;1255;97135;-77
2023/05/09 02:13:52;;;;;;;11.60;8.80;;;;;;;3.63;72.84;101973.96;105557;1259;99972;-77
2023/05/09 02:16:38;;;;;;;11.90;8.40;;;;;;;3.59;72.22;101978.34;105501;1256;99140;-76
2023/05/09 02:19:25;;;;;;;10.80;8.00;;;;;;;3.52;72.08;101977.42;105551;1256;99057;-77
2023/05/09 02:22:12;;;;;;;10.30;8.20;;;;;;;3.49;72.36;101974.83;105491;1256;96708;-77
2023/05/09 02:24:59;;;;;;;10.70;7.60;;;;;;;3.46;72.33;101974.50;105568;1260;97915;-77
2023/05/09 02:27:45;;;;;;;12.40;8.20;;;;;;;3.45;72.77;101976.00;105613;1260;100005;-76
2023/05/09 02:30:37;;;;;;;11.50;8.20;;;;;;;3.42;72.63;101973.52;105480;1261;100344;-77
2023/05/09 02:33:25;;;;;;;10.50;9.00;;;;;;;3.39;72.77;101975.20;105510;1255;97794;-78
2023/05/09 02:36:11;;;;;;;10.90;8.40;;;;;;;3.35;72.86;101968.94;105477;1256;96633;-79
2023/05/09 02:38:59;;;;;;;11.40;8.10;;;;;;;3.32;72.99;101969.82;105552;1260;96555;-78
2023/05/09 02:41:49;;;;;;;10.90;8.20;;;;;;;3.31;73.02;101967.24;105436;1260;101273;-78
2023/05/09 02:44:35;;;;;;;11.10;8.20;;;;;;;3.28;73.27;101965.53;105600;1255;100322;-77
2023/05/09 02:47:21;;;;;;;9.70;7.90;;;;;;;3.21;73.49;101966.39;105690;1260;98377;-78
2023/05/09 02:50:06;;;;;;;10.70;8.30;;;;;;;3.19;73.72;101966.73;105646;1256;97900;-77
2023/05/09 02:52:53;;;;;;;12.70;8.00;;;;;;;3.16;73.66;101969.72;105543;1260;97106;-77
2023/05/09 02:55:38;;;;;;;11.50;8.40;;;;;;;3.15;73.74;101970.52;105645;1255;101608;-77
2023/05/09 02:58:24;;;;;;;14.00;9.10;;;;;;;3.13;73.87;101970.97;105587;1255;100698;-78
2023/05/09 03:01:10;;;;;;;13.80;8.90;;;;;;;3.10;73.88;101971.85;105527;1260;98654;-79
2023/05/09 03:03:55;;;;;;;10.50;8.70;;;;;;;3.08;74.06;101972.54;105549;1260;96609;-77
2023/05/09 03:06:41;;;;;;;15.20;9.10;;;;;;;3.06;74.19;101969.55;105550;1255;97242;-78
2023/05/09 03:32:10;;;;;;;13.10;9.50;;;;;;;3.40;73.21;101971.20;102312;1292;640010;-78
2023/05/09 03:34:56;;;;;;;12.70;8.50;;;;;;;3.46;73.18;101977.82;104649;1269;97240;-77
2023/05/09 03:37:42;;;;;;;13.10;8.50;;;;;;;3.34;73.40;101978.34;104890;1269;95970;-78
2023/05/09 03:40:28;;;;;;;25.70;16.30;;;;;;;3.25;73.66;101976.33;105197;1267;98008;-78
2023/05/09 03:43:22;;;;;;;79.30;42.50;;;;;;;3.20;74.12;101979.36;105159;1264;99156;-78
2023/05/09 03:46:08;;;;;;;57.10;36.50;;;;;;;3.17;74.36;101979.55;105039;1270;98550;-78
2023/05/09 03:48:53;;;;;;;17.40;12.50;;;;;;;3.15;74.65;101976.50;105044;1269;96382;-77
2023/05/09 03:51:39;;;;;;;15.30;10.30;;;;;;;3.13;75.29;101976.30;105213;1269;95823;-78
2023/05/09 03:54:27;;;;;;;14.60;10.00;;;;;;;3.13;75.79;101976.67;104966;1269;97274;-78
2023/05/09 03:57:14;;;;;;;13.20;9.50;;;;;;;3.13;76.03;101975.79;105248;1266;100317;-77
2023/05/09 04:00:00;;;;;;;12.00;9.30;;;;;;;3.14;76.22;101973.55;105239;1266;97728;-78
2023/05/09 04:02:47;;;;;;;13.10;10.20;;;;;;;3.19;76.69;101975.34;105261;1260;96540;-78
2023/05/09 04:05:40;;;;;;;21.40;12.30;;;;;;;3.25;76.92;101975.45;105281;1266;96003;-79
2023/05/09 04:08:31;;;;;;;30.50;19.20;;;;;;;3.32;77.21;101975.65;105297;1265;99771;-79
2023/05/09 04:11:17;;;;;;;33.80;21.10;;;;;;;3.41;77.55;101983.84;105500;1260;100264;-78
2023/05/09 04:14:05;;;;;;;25.90;18.30;;;;;;;3.50;77.65;101985.34;105247;1265;97772;-78
2023/05/09 04:16:52;;;;;;;25.40;16.10;;;;;;;3.58;78.05;101982.80;105302;1266;97170;-78
2023/05/09 04:19:39;;;;;;;21.70;14.00;;;;;;;3.67;78.56;101982.86;105248;1266;96430;-76
2023/05/09 04:22:24;;;;;;;20.10;12.90;;;;;;;3.76;79.17;101981.55;105302;1260;98679;-77
2023/05/09 04:25:12;;;;;;;18.60;11.60;;;;;;;3.83;79.56;101979.62;105168;1266;100348;-78
2023/05/09 04:27:57;;;;;;;18.00;12.10;;;;;;;3.89;79.93;101982.52;105155;1274;98986;-78
2023/05/09 04:30:43;;;;;;;16.80;11.90;;;;;;;3.94;80.41;101983.75;105264;1266;95854;-78
2023/05/09 04:33:29;;;;;;;16.40;11.10;;;;;;;3.99;80.80;101982.14;105555;1263;95966;-77
2023/05/09 04:36:17;;;;;;;22.20;12.60;;;;;;;4.05;80.91;101982.58;105399;1263;98728;-79
2023/05/09 04:39:04;;;;;;;21.50;12.00;;;;;;;4.12;81.00;101979.59;105527;1263;99118;-77
2023/05/09 04:41:52;;;;;;;21.50;13.90;;;;;;;4.22;80.75;101981.86;105394;1262;98980;-76
2023/05/09 04:44:38;;;;;;;29.60;16.60;;;;;;;4.33;80.87;101976.92;105544;1263;95691;-78
2023/05/09 04:47:25;;;;;;;21.90;14.50;;;;;;;4.46;81.10;101977.77;105591;1262;95893;-78
2023/05/09 04:50:10;;;;;;;18.80;13.80;;;;;;;4.57;81.69;101982.73;105261;1266;100483;-79
2023/05/09 04:52:56;;;;;;;22.90;14.40;;;;;;;4.70;82.34;101984.77;105385;1258;99775;-77
2023/05/09 04:55:42;;;;;;;25.20;15.00;;;;;;;4.82;83.02;101982.61;105418;1263;98899;-78
2023/05/09 04:58:28;;;;;;;27.50;20.20;;;;;;;4.94;83.52;101982.96;105299;1263;96717;-78
2023/05/09 05:01:15;;;;;;;23.50;15.90;;;;;;;5.06;83.99;101983.44;105578;1263;95922;-77
2023/05/09 05:04:01;;;;;;;24.10;15.10;;;;;;;5.19;84.34;101988.58;105414;1263;99350;-78
2023/05/09 05:06:48;;;;;;;37.90;30.60;;;;;;;5.32;84.44;101986.10;105631;1264;99253;-78
2023/05/09 05:09:34;;;;;;;31.50;19.40;;;;;;;5.47;84.57;101984.98;105454;1263;98553;-77
2023/05/09 05:12:20;;;;;;;26.80;18.60;;;;;;;5.63;84.54;101987.40;105693;1263;96322;-78
2023/05/09 05:15:06;;;;;;;28.30;17.60;;;;;;;5.79;84.60;101987.02;105340;1268;96072;-78
2023/05/09 05:17:53;;;;;;;32.00;21.30;;;;;;;5.97;84.63;101983.65;105383;1263;99874;-76
2023/05/09 05:20:40;;;;;;;36.10;25.50;;;;;;;6.14;84.36;101983.15;105588;1261;99260;-77
2023/05/09 05:23:26;;;;;;;34.00;21.90;;;;;;;6.30;83.85;101983.02;105101;1272;97822;-78
2023/05/09 05:26:12;;;;;;;40.80;20.60;;;;;;;6.48;84.29;101980.69;105055;1266;95884;-76
2023/05/09 05:28:59;;;;;;;28.40;20.80;;;;;;;6.65;84.30;101980.50;105312;1263;96721;-79
2023/05/09 05:31:45;;;;;;;32.00;20.50;;;;;;;6.82;83.95;101976.21;105295;1263;98831;-77
2023/05/09 05:34:30;;;;;;;34.80;24.40;;;;;;;6.99;83.80;101977.39;105174;1273;99650;-78
2023/05/09 05:37:16;;;;;;;35.60;23.10;;;;;;;7.17;83.36;101976.34;105281;1264;97713;-78
2023/05/09 05:40:02;;;;;;;29.30;19.90;;;;;;;7.35;83.08;101977.45;105213;1272;96767;-78
2023/05/09 05:42:49;;;;;;;30.50;19.60;;;;;;;7.52;82.41;101974.13;104978;1266;95889;-77
2023/05/09 05:45:35;;;;;;;30.20;17.40;;;;;;;7.68;81.56;101971.64;105113;1264;98699;-78
2023/05/09 05:48:23;;;;;;;26.40;18.80;;;;;;;7.85;81.23;101967.71;106725;1263;100415;-77
2023/05/09 05:51:10;;;;;;;23.50;15.70;;;;;;;8.01;80.98;101972.61;105182;1266;97830;-78
2023/05/09 05:53:57;;;;;;;23.80;16.50;;;;;;;8.18;80.23;101973.05;105176;1270;95989;-78
2023/05/09 05:56:43;;;;;;;26.30;16.40;;;;;;;8.35;79.42;101972.05;105005;1263;97029;-79
2023/05/09 05:59:29;;;;;;;23.00;14.40;;;;;;;8.52;78.58;101972.80;104947;1263;99750;-79
2023/05/09 06:02:17;;;;;;;23.30;14.20;;;;;;;8.70;77.84;101974.04;105067;1263;100369;-77
2023/05/09 06:05:05;;;;;;;23.50;14.90;;;;;;;8.85;76.98;101975.41;104962;1266;99551;-81
2023/05/09 06:07:51;;;;;;;25.60;16.10;;;;;;;9.00;76.99;101974.54;104946;1266;95896;-76
2023/05/09 06:10:36;;;;;;;20.30;13.80;;;;;;;9.15;77.29;101974.65;105035;1263;95896;-78
2023/05/09 06:13:22;;;;;;;24.70;16.50;;;;;;;9.32;76.59;101974.70;105067;1263;99494;-77
2023/05/09 06:16:10;;;;;;;18.40;13.70;;;;;;;9.48;76.11;101976.59;105258;1263;100451;-77
2023/05/09 06:18:56;;;;;;;21.40;13.00;;;;;;;9.63;75.23;101976.88;105056;1260;97735;-76
2023/05/09 06:21:41;;;;;;;18.20;11.90;;;;;;;9.77;74.68;101972.05;105087;1260;95976;-78
2023/05/09 06:24:27;;;;;;;17.70;11.90;;;;;;;9.94;74.78;101972.05;105128;1261;96834;-77
2023/05/09 06:27:12;;;;;;;18.20;11.10;;;;;;;10.10;74.15;101967.92;104914;1266;98634;-77
2023/05/09 06:29:57;;;;;;;15.00;9.90;;;;;;;10.28;73.32;101966.77;105126;1260;100342;-78
2023/05/09 06:32:43;;;;;;;13.10;9.50;;;;;;;10.43;72.12;101967.05;105084;1261;99086;-78
2023/05/09 06:35:28;;;;;;;50.90;27.60;;;;;;;10.58;71.70;101969.91;105140;1265;95947;-78
2023/05/09 06:38:14;;;;;;;28.60;17.80;;;;;;;10.76;70.88;101967.39;105254;1260;95982;-77
2023/05/09 06:40:59;;;;;;;19.60;10.70;;;;;;;10.93;69.96;101967.98;105219;1263;99674;-75
2023/05/09 06:43:45;;;;;;;15.70;8.50;;;;;;;11.09;68.80;101964.90;105023;1266;99065;-77
2023/05/09 06:46:31;;;;;;;9.60;6.70;;;;;;;11.25;67.27;101961.45;105007;1261;97766;-77
2023/05/09 06:49:16;;;;;;;14.20;7.80;;;;;;;11.39;66.77;101961.34;105073;1262;95877;-78
2023/05/09 06:52:02;;;;;;;10.90;7.10;;;;;;;11.54;66.46;101959.58;105163;1272;96277;-77
2023/05/09 06:54:47;;;;;;;12.30;7.20;;;;;;;11.68;65.57;101958.84;105396;1264;98638;-78
2023/05/09 06:57:33;;;;;;;15.80;8.30;;;;;;;11.82;64.98;101955.62;105346;1266;100318;-78
2023/05/09 07:00:19;;;;;;;11.90;8.00;;;;;;;11.98;64.81;101954.63;105363;1264;99484;-79
2023/05/09 07:03:06;;;;;;;16.70;10.40;;;;;;;12.14;65.45;101954.08;105251;1263;96021;-79
2023/05/09 07:05:51;;;;;;;12.80;8.80;;;;;;;12.30;65.33;101949.30;105285;1264;96136;-79
2023/05/09 07:08:37;;;;;;;12.90;8.30;;;;;;;12.47;64.80;101947.52;105085;1265;98722;-80
2023/05/09 07:11:22;;;;;;;12.10;8.40;;;;;;;12.61;64.13;101949.85;105309;1254;100327;-78
2023/05/09 07:14:08;;;;;;;12.30;6.70;;;;;;;12.73;62.94;101952.98;105480;1254;98705;-79
2023/05/09 07:16:53;;;;;;;9.30;6.00;;;;;;;12.84;61.46;101947.77;105580;1261;95934;-78
2023/05/09 07:19:40;;;;;;;12.70;6.80;;;;;;;12.94;60.47;101944.51;105672;1254;97097;-79
2023/05/09 07:22:25;;;;;;;9.90;7.00;;;;;;;13.05;60.60;101942.20;106064;1257;98624;-79
2023/05/09 07:25:11;;;;;;;10.00;7.10;;;;;;;13.14;59.30;101940.75;105612;1259;101118;-80
2023/05/09 07:27:57;;;;;;;8.20;6.90;;;;;;;13.20;59.31;101939.33;106043;1261;97709;-78
2023/05/09 07:30:42;;;;;;;17.10;5.60;;;;;;;13.30;59.67;101936.58;105486;1260;95896;-79
2023/05/09 07:33:28;;;;;;;10.20;4.60;;;;;;;13.43;58.47;101938.55;106342;1260;95820;-79
2023/05/09 07:36:15;;;;;;;9.90;5.20;;;;;;;13.52;57.30;101935.27;106300;1255;99928;-81
2023/05/09 07:39:01;;;;;;;5.10;3.90;;;;;;;13.60;56.34;101927.43;105995;1257;100491;-78
2023/05/09 07:41:47;;;;;;;10.80;5.00;;;;;;;13.67;54.89;101924.58;105451;1258;99155;-78
2023/05/09 07:44:32;;;;;;;8.30;4.80;;;;;;;13.74;54.14;101919.30;105306;1260;95831;-77
2023/05/09 07:47:17;;;;;;;6.40;3.90;;;;;;;13.82;53.80;101914.98;105428;1259;95945;-79
2023/05/09 07:50:04;;;;;;;8.40;4.20;;;;;;;13.89;53.17;101911.98;106249;1255;99846;-79
2023/05/09 07:52:50;;;;;;;7.20;2.90;;;;;;;14.01;53.08;101910.77;105709;1257;99042;-80
2023/05/09 07:55:36;;;;;;;6.80;3.40;;;;;;;14.12;52.12;101906.67;105700;1260;97742;-80
2023/05/09 07:58:21;;;;;;;7.80;3.30;;;;;;;14.19;51.56;101899.67;105698;1261;95898;-78
2023/05/09 08:01:07;;;;;;;5.20;2.70;;;;;;;14.26;49.72;101899.80;105800;1254;95957;-78
2023/05/09 08:03:52;;;;;;;9.70;3.20;;;;;;;14.31;48.96;101896.73;105804;1257;98723;-79
2023/05/09 08:06:38;;;;;;;5.40;2.90;;;;;;;14.37;48.74;101894.02;105580;1261;100345;-77
2023/05/09 08:09:25;;;;;;;3.70;2.40;;;;;;;14.44;48.89;101888.89;105383;1254;98742;-77
2023/05/09 08:12:10;;;;;;;6.10;2.50;;;;;;;14.51;48.05;101886.41;105649;1255;96809;-78
2023/05/09 08:14:56;;;;;;;4.60;2.60;;;;;;;14.59;47.67;101884.92;105564;1260;97448;-79
2023/05/09 08:17:42;;;;;;;5.20;3.00;;;;;;;14.65;46.82;101882.16;105631;1259;100714;-79
2023/05/09 08:20:27;;;;;;;5.00;3.00;;;;;;;14.72;46.27;101882.14;105584;1254;100341;-79
2023/05/09 08:23:13;;;;;;;8.10;3.00;;;;;;;14.78;46.59;101878.97;105910;1254;97835;-78
2023/05/09 08:25:58;;;;;;;5.10;2.60;;;;;;;14.85;46.60;101880.09;105561;1259;97776;-78
2023/05/09 08:28:43;;;;;;;5.40;3.10;;;;;;;14.93;45.52;101878.63;105565;1259;97103;-78
2023/05/09 08:31:29;;;;;;;5.20;3.50;;;;;;;14.97;45.13;101871.46;105520;1256;99956;-78
2023/05/09 08:34:15;;;;;;;3.20;2.80;;;;;;;15.02;45.22;101869.39;105489;1256;100292;-77
2023/05/09 08:37:01;;;;;;;4.00;2.50;;;;;;;15.06;44.88;101866.21;105544;1259;97914;-79
2023/05/09 08:39:46;;;;;;;3.50;2.20;;;;;;;15.13;44.92;101863.82;105479;1258;97048;-78
2023/05/09 08:42:35;;;;;;;3.40;2.20;;;;;;;15.18;44.61;101861.83;105706;1254;97211;-79
2023/05/09 08:45:26;;;;;;;3.60;2.50;;;;;;;15.23;44.20;101855.27;105730;1261;101247;-79
2023/05/09 08:48:12;;;;;;;;;;;;;;;15.28;43.73;101854.12;105760;1260;100353;-79
2023/05/09 08:51:00;;;;;;;3.10;2.30;;;;;;;15.32;43.81;101854.70;105768;1254;97704;-79
2023/05/09 08:53:45;;;;;;;3.30;2.50;;;;;;;15.39;44.87;101854.93;105774;1256;96602;-78
2023/05/09 08:56:33;;;;;;;2.80;2.30;;;;;;;15.46;43.92;101851.95;105727;1254;97121;-79
2023/05/09 08:59:19;;;;;;;2.50;2.10;;;;;;;15.50;43.00;101850.58;105579;1258;100004;-78
2023/05/09 09:02:06;;;;;;;5.20;2.40;;;;;;;15.52;42.79;101848.02;105577;1254;100307;-79
2023/05/09 09:04:53;;;;;;;4.10;2.20;;;;;;;15.55;42.63;101844.39;105538;1254;98397;-77
2023/05/09 09:07:40;;;;;;;5.10;2.40;;;;;;;15.61;42.49;101849.29;105536;1260;96794;-78
2023/05/09 09:10:30;;;;;;;3.80;2.90;;;;;;;15.66;42.68;101845.94;105485;1254;97045;-77
2023/05/09 09:13:16;;;;;;;5.40;2.40;;;;;;;15.72;42.53;101836.66;105488;1258;99987;-77
2023/05/09 09:16:03;;;;;;;4.70;2.20;;;;;;;15.79;42.11;101833.02;105537;1271;100329;-80
2023/05/09 09:18:53;;;;;;;2.00;1.80;;;;;;;15.84;41.57;101830.20;105725;1259;98380;-80
2023/05/09 09:21:45;;;;;;;6.40;2.20;;;;;;;15.90;41.47;101830.56;105880;1255;96599;-79
2023/05/09 09:24:31;;;;;;;6.30;2.40;;;;;;;15.96;41.78;101832.15;105656;1257;98309;-79
2023/05/09 09:27:16;;;;;;;3.20;2.10;;;;;;;15.99;41.32;101825.83;105716;1254;101274;-79
2023/05/09 09:30:10;;;;;;;3.20;2.10;;;;;;;16.03;40.88;101826.58;105661;1254;99062;-77
2023/05/09 09:32:58;;;;;;;4.70;2.40;;;;;;;16.09;40.44;101826.39;105515;1254;98291;-79
2023/05/09 09:35:44;;;;;;;3.80;2.50;;;;;;;16.10;40.40;101820.75;105526;1254;96638;-80
2023/05/09 09:38:40;;;;;;;6.40;2.20;;;;;;;16.07;40.46;101825.88;105546;1254;96498;-79
2023/05/09 09:41:36;;;;;;;4.50;2.70;;;;;;;16.06;40.97;101824.70;106152;1256;100948;-78
2023/05/09 09:44:22;;;;;;;5.30;2.70;;;;;;;16.11;40.48;101816.02;105427;1259;107854;-78
2023/05/09 09:47:09;;;;;;;4.00;2.40;;;;;;;16.17;40.92;101818.98;105743;1259;98994;-79
2023/05/09 09:49:55;;;;;;;4.30;2.50;;;;;;;16.26;40.83;101815.15;105749;1254;96619;-79
2023/05/09 09:52:42;;;;;;;4.30;2.60;;;;;;;16.35;41.22;101814.15;105600;1261;97065;-78
2023/05/09 09:55:28;;;;;;;3.30;2.20;;;;;;;16.43;40.46;101814.09;105438;1257;99974;-78
2023/05/09 09:58:17;;;;;;;6.90;2.20;;;;;;;16.44;40.47;101808.49;105474;1260;100603;-78
2023/05/09 10:01:04;;;;;;;6.50;2.60;;;;;;;16.52;40.71;101807.71;105475;1255;97790;-77
2023/05/09 10:03:50;;;;;;;6.30;2.20;;;;;;;16.62;40.02;101803.14;105464;1254;96511;-79
2023/05/09 10:06:35;;;;;;;3.10;2.10;;;;;;;16.71;39.20;101799.86;105695;1254;97992;-78
2023/05/09 10:09:26;;;;;;;3.40;2.40;;;;;;;16.75;39.50;101799.64;105496;1254;100697;-77
2023/05/09 10:12:14;;;;;;;2.60;2.10;;;;;;;16.79;38.77;101799.20;105497;1256;99107;-79
2023/05/09 10:18:18;;;;;;;2.70;2.00;;;;;;;16.85;38.76;101794.88;103773;1276;97906;-79
2023/05/09 10:21:06;;;;;;;3.50;2.20;;;;;;;16.86;38.42;101789.48;104189;1274;97108;-77
2023/05/09 10:23:54;;;;;;;9.30;2.30;;;;;;;16.88;38.40;101790.54;106109;1270;100066;-79
2023/05/09 10:26:45;;;;;;;4.50;2.00;;;;;;;16.90;38.26;101785.99;104036;1279;99242;-79
2023/05/09 10:29:40;;;;;;;3.20;2.10;;;;;;;16.86;37.77;101778.02;103936;1274;98674;-78
2023/05/09 10:32:42;;;;;;;5.50;2.20;;;;;;;16.85;38.67;101775.05;103932;1274;96622;-78
2023/05/09 10:35:32;;;;;;;6.30;2.80;;;;;;;16.90;39.07;101768.71;104084;1279;97823;-77
2023/05/09 10:38:18;;;;;;;2.20;1.90;;;;;;;16.98;38.79;101768.39;104001;1279;100000;-79
2023/05/09 10:41:04;;;;;;;5.50;2.80;;;;;;;17.05;37.78;101761.92;107060;1273;99438;-79
2023/05/09 10:43:49;;;;;;;4.20;2.10;;;;;;;17.07;37.31;101758.64;105603;1274;99008;-79
2023/05/09 10:46:36;;;;;;;3.70;1.90;;;;;;;17.11;37.70;101761.20;103935;1274;97803;-76
2023/05/09 10:49:21;;;;;;;7.70;3.20;;;;;;;17.17;36.48;101760.02;103971;1274;97277;-76
2023/05/09 10:52:07;;;;;;;3.20;2.00;;;;;;;17.23;36.55;101750.85;103886;1274;100142;-78
2023/05/09 10:55:03;;;;;;;6.80;2.10;;;;;;;17.30;36.99;101747.16;103903;1278;99113;-77
2023/05/09 10:57:53;;;;;;;7.40;2.40;;;;;;;17.35;36.97;101743.02;104144;1280;97773;-77
2023/05/09 11:00:42;;;;;;;4.00;2.20;;;;;;;17.41;36.93;101739.23;104305;1273;97964;-78
2023/05/09 11:03:48;;;;;;;4.60;2.40;;;;;;;17.46;36.19;101734.42;103873;1280;97080;-77
2023/05/09 11:06:51;;;;;;;5.90;2.60;;;;;;;17.45;35.97;101724.84;104179;1278;100041;-79
2023/05/09 11:09:37;;;;;;;4.20;2.30;;;;;;;17.45;36.15;101723.05;103891;1287;99256;-78
2023/05/09 11:12:23;;;;;;;3.60;1.70;;;;;;;17.45;36.16;101716.09;104158;1273;97738;-78
2023/05/09 11:15:09;;;;;;;3.80;2.20;;;;;;;17.49;35.97;101711.30;104336;1273;97520;-79
2023/05/09 11:18:09;;;;;;;7.80;2.40;;;;;;;17.58;36.17;101709.02;104537;1277;96650;-78
2023/05/09 11:20:55;;;;;;;2.50;1.90;;;;;;;17.65;36.39;101704.40;106014;1273;100097;-80
2023/05/09 11:23:41;;;;;;;3.70;2.10;;;;;;;17.69;36.71;101704.41;106105;1272;99162;-79
2023/05/09 11:26:46;;;;;;;4.10;2.10;;;;;;;17.73;36.04;101698.45;106627;1268;99142;31
2023/05/09 11:29:43;;;;;;;5.00;2.40;;;;;;;17.78;36.04;101699.25;104167;1276;97921;-78
2023/05/09 11:32:33;;;;;;;5.30;2.60;;;;;;;17.85;35.62;101693.21;104216;1273;98331;-78
2023/05/09 11:35:20;;;;;;;3.40;2.40;;;;;;;17.90;35.41;101687.30;104333;1273;100011;-78
2023/05/09 11:38:05;;;;;;;4.40;2.50;;;;;;;17.90;34.44;101682.37;104000;1277;99223;-78
2023/05/09 11:40:52;;;;;;;3.10;2.10;;;;;;;17.93;34.54;101678.54;104046;1276;99113;-77
2023/05/09 11:43:39;;;;;;;3.00;2.00;;;;;;;17.93;34.68;101671.69;104030;1273;96721;-79
2023/05/09 11:46:25;;;;;;;4.90;2.40;;;;;;;17.97;34.74;101668.77;103982;1277;98332;-77
2023/05/09 11:49:11;;;;;;;5.60;2.10;;;;;;;18.03;34.94;101670.62;103997;1277;101634;-77
2023/05/09 11:51:58;;;;;;;4.80;2.30;;;;;;;18.02;34.80;101666.19;104065;1277;100838;-78
2023/05/09 11:54:44;;;;;;;7.30;2.40;;;;;;;18.05;34.51;101660.77;104027;1276;99000;-78
2023/05/09 11:57:29;;;;;;;4.80;2.20;;;;;;;18.16;35.31;101660.89;104103;1273;97910;-78
2023/05/09 12:00:17;;;;;;;3.80;2.20;;;;;;;18.28;35.56;101659.06;104076;1273;97175;-79
2023/05/09 12:03:04;;;;;;;5.70;2.10;;;;;;;18.31;35.22;101648.59;105190;1273;100009;-79
2023/05/09 12:05:49;;;;;;;9.70;2.40;;;;;;;18.33;35.16;101644.04;104522;1277;99190;-79
2023/05/09 12:08:36;;;;;;;3.80;2.00;;;;;;;18.30;34.53;101640.66;104088;1278;99076;-77
2023/05/09 12:11:23;;;;;;;4.20;2.00;;;;;;;18.26;34.81;101639.20;104331;1276;96649;-79
2023/05/09 12:14:08;;;;;;;4.70;2.50;;;;;;;18.33;34.43;101643.86;104831;1273;96609;-79
2023/05/09 12:16:53;;;;;;;8.50;2.40;;;;;;;18.41;34.03;101643.42;104393;1273;100752;-77
2023/05/09 12:19:39;;;;;;;3.40;1.90;;;;;;;18.46;33.67;101638.05;103987;1272;99295;-78
2023/05/09 12:22:25;;;;;;;4.90;2.50;;;;;;;18.53;33.81;101633.66;103939;1276;99117;-78
2023/05/09 12:25:10;;;;;;;4.60;2.10;;;;;;;18.61;33.82;101632.21;104012;1276;96653;-79
2023/05/09 12:27:56;;;;;;;3.90;2.20;;;;;;;18.70;34.03;101625.63;104029;1273;97099;-79
2023/05/09 12:30:43;;;;;;;4.10;2.20;;;;;;;18.78;34.31;101622.54;104050;1276;101254;-77
2023/05/09 12:33:29;;;;;;;3.10;2.70;;;;;;;18.85;34.00;101617.73;104001;1273;100024;-79
2023/05/09 12:36:15;;;;;;;3.90;2.00;;;;;;;18.92;34.07;101614.11;104227;1273;98771;-79
2023/05/09 12:39:00;;;;;;;4.10;2.40;;;;;;;19.00;34.21;101607.23;104268;1276;96618;-79
2023/05/09 12:41:50;;;;;;;3.00;2.20;;;;;;;19.08;33.62;101601.91;104070;1273;96558;-78
2023/05/09 12:44:36;;;;;;;2.60;2.10;;;;;;;19.09;33.60;101598.97;104339;1276;101298;-80
2023/05/09 12:47:26;;;;;;;4.10;1.80;;;;;;;19.09;33.66;101595.89;104118;1273;100163;-79
2023/05/09 12:50:12;;;;;;;4.10;2.00;;;;;;;19.12;33.92;101598.34;104783;1276;98998;-79
2023/05/09 12:53:00;;;;;;;5.30;2.50;;;;;;;19.20;33.77;101589.66;104349;1289;96640;-78
2023/05/09 12:55:46;;;;;;;4.10;2.10;;;;;;;19.26;33.13;101582.65;103991;1273;97112;-79
2023/05/09 12:58:32;;;;;;;6.90;3.00;;;;;;;19.32;33.16;101578.11;104073;1273;100059;-78
2023/05/09 13:01:19;;;;;;;2.90;2.10;;;;;;;19.37;33.25;101578.13;104030;1274;99221;-78
2023/05/09 13:04:06;;;;;;;4.90;2.10;;;;;;;19.40;32.42;101578.82;104258;1278;98292;-78
2023/05/09 13:06:54;;;;;;;5.00;2.40;;;;;;;19.41;32.30;101576.39;104370;1277;96724;-79
2023/05/09 13:09:55;;;;;;;5.20;2.70;;;;;;;19.46;32.57;101573.98;104397;1276;97314;-80
2023/05/09 13:12:46;;;;;;;3.90;2.00;;;;;;;19.47;32.47;101571.98;104948;1273;100008;-79